サンフランシスコ の空港の天気 - METARとTAF

サンフランシスコ国際空港 ( KSFO / SFO ) - アメリカ カリフォルニア州サンマテオ郡
飛行場実況気象(Metar)
観測時間02/23 04:56 PST (02/23 12:56 UTC)
風向・風速北西 3m/s
視程10km以上
天気現象
なし
気温5.6℃
湿度53%
気圧1025.8hPa
METARKSFO 231256Z 31005KT 10SM CLR 06/M03 A3029 RMK AO2 SLP258 T00561033
過去の天気等 Google飛行場航空写真 Wunderground天気予報

過去48時間のMETAR

飛行場予報(TAF)
発表時間: 2/23 03:20 PST (2/23 11:20 UTC)
予報対象時間: 23日4時 PST ~ 24日10時 PST
風向・風速北北西 3m/s
視程10km以上
少しの雲 雲底高度 910m
23日7時 PST から
風向・風速北西 5m/s
視程10km以上
少しの雲 雲底高度 760m
23日14時 PST から
風向・風速西北西 8m/s
視程10km以上
少しの雲 雲底高度 1,070m
23日20時 PST から
風向・風速西北西 4m/s
視程10km以上
なし
24日2時 PST から
風向・風速北西 3m/s
視程10km以上
少しの雲 雲底高度 760m
KSFO 231120Z 2312/2418 34006KT P6SM FEW030
FM231500 32010KT P6SM FEW025
FM232200 30015KT P6SM FEW035
FM240400 29008KT P6SM SKC
FM241000 31006KT P6SM FEW025